sensor_id;sensor_type;location;lat;lon;timestamp;temperature;humidity
41944;DHT22;27636;52.610;13.244;2022-10-22T00:24:38;13.10;99.90
41944;DHT22;27636;52.610;13.244;2022-10-22T00:29:42;13.10;99.90
41944;DHT22;27636;52.610;13.244;2022-10-22T00:42:22;13.00;99.90
41944;DHT22;27636;52.610;13.244;2022-10-22T00:47:28;13.00;99.90
41944;DHT22;27636;52.610;13.244;2022-10-22T00:52:33;12.90;99.90
41944;DHT22;27636;52.610;13.244;2022-10-22T00:57:37;12.80;99.90
41944;DHT22;27636;52.610;13.244;2022-10-22T01:02:41;12.70;99.90
41944;DHT22;27636;52.610;13.244;2022-10-22T01:07:48;12.60;99.90
41944;DHT22;27636;52.610;13.244;2022-10-22T01:13:04;12.60;99.90
41944;DHT22;27636;52.610;13.244;2022-10-22T01:18:16;12.60;99.90
41944;DHT22;27636;52.610;13.244;2022-10-22T01:23:39;12.60;99.90
41944;DHT22;27636;52.610;13.244;2022-10-22T01:28:57;12.70;99.90
41944;DHT22;27636;52.610;13.244;2022-10-22T01:34:02;12.70;99.90
41944;DHT22;27636;52.610;13.244;2022-10-22T01:39:06;12.80;99.90
41944;DHT22;27636;52.610;13.244;2022-10-22T01:44:23;12.80;99.90
41944;DHT22;27636;52.610;13.244;2022-10-22T01:49:32;12.60;99.90
41944;DHT22;27636;52.610;13.244;2022-10-22T01:54:44;12.60;99.90
41944;DHT22;27636;52.610;13.244;2022-10-22T01:59:56;12.40;99.90
41944;DHT22;27636;52.610;13.244;2022-10-22T02:05:06;12.30;99.90
41944;DHT22;27636;52.610;13.244;2022-10-22T02:10:11;12.30;99.90
41944;DHT22;27636;52.610;13.244;2022-10-22T02:15:17;12.30;99.90
41944;DHT22;27636;52.610;13.244;2022-10-22T02:20:24;12.30;99.90
41944;DHT22;27636;52.610;13.244;2022-10-22T02:25:32;12.30;99.90
41944;DHT22;27636;52.610;13.244;2022-10-22T02:30:40;12.30;99.90
41944;DHT22;27636;52.610;13.244;2022-10-22T02:35:45;12.30;99.90
41944;DHT22;27636;52.610;13.244;2022-10-22T02:40:48;12.30;99.90
41944;DHT22;27636;52.610;13.244;2022-10-22T02:45:53;12.20;99.90
41944;DHT22;27636;52.610;13.244;2022-10-22T02:50:56;12.10;99.90
41944;DHT22;27636;52.610;13.244;2022-10-22T02:55:59;12.10;99.90
41944;DHT22;27636;52.610;13.244;2022-10-22T03:01:04;12.10;99.90
41944;DHT22;27636;52.610;13.244;2022-10-22T03:06:07;12.10;99.90
41944;DHT22;27636;52.610;13.244;2022-10-22T03:11:11;12.20;99.90
41944;DHT22;27636;52.610;13.244;2022-10-22T03:16:15;12.20;99.90
41944;DHT22;27636;52.610;13.244;2022-10-22T03:21:24;12.20;99.90
41944;DHT22;27636;52.610;13.244;2022-10-22T03:26:30;12.20;99.90
41944;DHT22;27636;52.610;13.244;2022-10-22T03:31:34;12.20;99.90
41944;DHT22;27636;52.610;13.244;2022-10-22T03:36:38;12.20;99.90
41944;DHT22;27636;52.610;13.244;2022-10-22T03:41:42;12.10;99.90
41944;DHT22;27636;52.610;13.244;2022-10-22T04:31:40;12.10;99.90
41944;DHT22;27636;52.610;13.244;2022-10-22T04:36:43;12.10;99.90
41944;DHT22;27636;52.610;13.244;2022-10-22T04:41:46;12.00;99.90
41944;DHT22;27636;52.610;13.244;2022-10-22T04:46:51;12.00;99.90
41944;DHT22;27636;52.610;13.244;2022-10-22T04:51:54;12.10;99.90
41944;DHT22;27636;52.610;13.244;2022-10-22T04:56:57;12.20;99.90
41944;DHT22;27636;52.610;13.244;2022-10-22T05:02:02;11.90;99.90
41944;DHT22;27636;52.610;13.244;2022-10-22T05:07:05;11.90;99.90
41944;DHT22;27636;52.610;13.244;2022-10-22T05:12:08;11.80;99.90
41944;DHT22;27636;52.610;13.244;2022-10-22T05:17:12;11.70;99.90
41944;DHT22;27636;52.610;13.244;2022-10-22T05:22:15;11.70;99.90
41944;DHT22;27636;52.610;13.244;2022-10-22T05:27:19;11.60;99.90
41944;DHT22;27636;52.610;13.244;2022-10-22T05:32:23;11.60;99.90
41944;DHT22;27636;52.610;13.244;2022-10-22T05:37:26;11.60;99.90
41944;DHT22;27636;52.610;13.244;2022-10-22T05:42:30;11.50;99.90
41944;DHT22;27636;52.610;13.244;2022-10-22T05:47:35;11.50;99.90
41944;DHT22;27636;52.610;13.244;2022-10-22T05:52:38;11.50;99.90
41944;DHT22;27636;52.610;13.244;2022-10-22T05:57:42;11.50;99.90
41944;DHT22;27636;52.610;13.244;2022-10-22T06:02:50;11.50;99.90
41944;DHT22;27636;52.610;13.244;2022-10-22T06:07:53;11.60;99.90
41944;DHT22;27636;52.610;13.244;2022-10-22T06:12:57;11.50;99.90
41944;DHT22;27636;52.610;13.244;2022-10-22T06:18:04;11.60;99.90
41944;DHT22;27636;52.610;13.244;2022-10-22T06:23:07;11.70;99.90
41944;DHT22;27636;52.610;13.244;2022-10-22T06:28:11;11.80;99.90
41944;DHT22;27636;52.610;13.244;2022-10-22T06:33:15;12.00;99.90
41944;DHT22;27636;52.610;13.244;2022-10-22T06:38:19;12.10;99.90
41944;DHT22;27636;52.610;13.244;2022-10-22T06:43:22;12.10;99.90
41944;DHT22;27636;52.610;13.244;2022-10-22T06:48:26;12.20;99.90
41944;DHT22;27636;52.610;13.244;2022-10-22T06:53:30;12.30;99.90
41944;DHT22;27636;52.610;13.244;2022-10-22T06:58:33;12.40;99.90
41944;DHT22;27636;52.610;13.244;2022-10-22T07:03:38;12.60;99.90
41944;DHT22;27636;52.610;13.244;2022-10-22T07:08:42;12.70;99.90
41944;DHT22;27636;52.610;13.244;2022-10-22T07:13:46;13.00;99.90
41944;DHT22;27636;52.610;13.244;2022-10-22T07:18:51;13.20;99.90
41944;DHT22;27636;52.610;13.244;2022-10-22T07:23:54;13.40;99.90
41944;DHT22;27636;52.610;13.244;2022-10-22T07:28:57;13.50;99.90
41944;DHT22;27636;52.610;13.244;2022-10-22T07:34:02;13.60;99.90
41944;DHT22;27636;52.610;13.244;2022-10-22T07:39:05;13.90;99.90
41944;DHT22;27636;52.610;13.244;2022-10-22T07:44:08;14.00;99.90
41944;DHT22;27636;52.610;13.244;2022-10-22T07:49:13;14.00;99.90
41944;DHT22;27636;52.610;13.244;2022-10-22T07:54:16;14.10;99.90
41944;DHT22;27636;52.610;13.244;2022-10-22T07:59:21;14.30;99.90
41944;DHT22;27636;52.610;13.244;2022-10-22T08:04:25;14.50;99.90
41944;DHT22;27636;52.610;13.244;2022-10-22T08:09:28;14.50;99.90
41944;DHT22;27636;52.610;13.244;2022-10-22T08:14:31;14.60;99.90
41944;DHT22;27636;52.610;13.244;2022-10-22T08:19:36;14.60;99.90
41944;DHT22;27636;52.610;13.244;2022-10-22T08:24:40;14.70;99.90
41944;DHT22;27636;52.610;13.244;2022-10-22T08:29:43;14.70;99.90
41944;DHT22;27636;52.610;13.244;2022-10-22T08:34:47;14.90;99.90
41944;DHT22;27636;52.610;13.244;2022-10-22T08:39:51;15.00;99.90
41944;DHT22;27636;52.610;13.244;2022-10-22T08:45:02;15.20;99.90
41944;DHT22;27636;52.610;13.244;2022-10-22T08:50:11;15.50;99.90
41944;DHT22;27636;52.610;13.244;2022-10-22T08:55:16;15.70;99.90
41944;DHT22;27636;52.610;13.244;2022-10-22T09:00:22;15.60;99.90
41944;DHT22;27636;52.610;13.244;2022-10-22T09:05:35;15.50;99.90
41944;DHT22;27636;52.610;13.244;2022-10-22T09:10:42;15.20;99.90
41944;DHT22;27636;52.610;13.244;2022-10-22T09:15:50;15.40;99.90
41944;DHT22;27636;52.610;13.244;2022-10-22T09:21:00;15.50;99.90
41944;DHT22;27636;52.610;13.244;2022-10-22T09:26:12;15.60;99.90
41944;DHT22;27636;52.610;13.244;2022-10-22T09:45:37;16.60;99.90
41944;DHT22;27636;52.610;13.244;2022-10-22T09:50:43;16.60;99.90
41944;DHT22;27636;52.610;13.244;2022-10-22T09:55:52;16.40;99.90
41944;DHT22;27636;52.610;13.244;2022-10-22T10:00:58;16.30;99.90
41944;DHT22;27636;52.610;13.244;2022-10-22T10:06:03;16.20;99.90
41944;DHT22;27636;52.610;13.244;2022-10-22T10:11:12;16.10;99.90
41944;DHT22;27636;52.610;13.244;2022-10-22T10:16:27;16.10;99.90
41944;DHT22;27636;52.610;13.244;2022-10-22T10:21:38;16.40;99.90
41944;DHT22;27636;52.610;13.244;2022-10-22T10:26:46;16.70;99.90
41944;DHT22;27636;52.610;13.244;2022-10-22T10:32:05;16.80;99.90
41944;DHT22;27636;52.610;13.244;2022-10-22T10:37:16;16.90;99.90
41944;DHT22;27636;52.610;13.244;2022-10-22T10:42:27;17.10;99.90
41944;DHT22;27636;52.610;13.244;2022-10-22T10:47:51;17.20;99.90
41944;DHT22;27636;52.610;13.244;2022-10-22T10:53:05;17.90;99.90
41944;DHT22;27636;52.610;13.244;2022-10-22T10:58:18;18.20;99.90
41944;DHT22;27636;52.610;13.244;2022-10-22T11:03:53;19.00;99.90
41944;DHT22;27636;52.610;13.244;2022-10-22T11:09:04;19.30;99.90
41944;DHT22;27636;52.610;13.244;2022-10-22T11:14:12;19.50;99.90
41944;DHT22;27636;52.610;13.244;2022-10-22T11:19:21;19.00;99.90
41944;DHT22;27636;52.610;13.244;2022-10-22T11:24:51;19.10;99.90
41944;DHT22;27636;52.610;13.244;2022-10-22T11:30:01;18.90;99.90
41944;DHT22;27636;52.610;13.244;2022-10-22T11:35:10;18.50;99.90
41944;DHT22;27636;52.610;13.244;2022-10-22T11:40:18;18.50;99.90
41944;DHT22;27636;52.610;13.244;2022-10-22T11:45:28;18.70;99.90
41944;DHT22;27636;52.610;13.244;2022-10-22T11:50:46;19.40;99.90
41944;DHT22;27636;52.610;13.244;2022-10-22T11:55:51;19.20;99.90
41944;DHT22;27636;52.610;13.244;2022-10-22T12:00:56;20.10;99.90
41944;DHT22;27636;52.610;13.244;2022-10-22T12:06:04;20.70;99.90
41944;DHT22;27636;52.610;13.244;2022-10-22T12:11:18;21.10;99.90
41944;DHT22;27636;52.610;13.244;2022-10-22T12:16:23;21.70;99.90
41944;DHT22;27636;52.610;13.244;2022-10-22T12:21:51;22.70;99.90
41944;DHT22;27636;52.610;13.244;2022-10-22T12:26:55;22.90;99.90
41944;DHT22;27636;52.610;13.244;2022-10-22T13:24:49;22.00;99.90
41944;DHT22;27636;52.610;13.244;2022-10-22T13:29:53;21.80;99.90
41944;DHT22;27636;52.610;13.244;2022-10-22T13:34:58;21.90;99.90
41944;DHT22;27636;52.610;13.244;2022-10-22T13:40:10;22.00;99.90
41944;DHT22;27636;52.610;13.244;2022-10-22T13:45:15;21.80;99.90
41944;DHT22;27636;52.610;13.244;2022-10-22T13:50:19;21.00;99.90
41944;DHT22;27636;52.610;13.244;2022-10-22T13:55:26;20.30;99.90
41944;DHT22;27636;52.610;13.244;2022-10-22T14:00:31;19.70;99.90
41944;DHT22;27636;52.610;13.244;2022-10-22T14:05:34;19.40;99.90
41944;DHT22;27636;52.610;13.244;2022-10-22T14:33:18;18.20;99.90
41944;DHT22;27636;52.610;13.244;2022-10-22T14:38:22;18.10;99.90
41944;DHT22;27636;52.610;13.244;2022-10-22T14:43:27;17.90;99.90
41944;DHT22;27636;52.610;13.244;2022-10-22T14:48:33;17.90;99.90
41944;DHT22;27636;52.610;13.244;2022-10-22T14:53:36;18.00;99.90
41944;DHT22;27636;52.610;13.244;2022-10-22T14:58:40;17.90;99.90
41944;DHT22;27636;52.610;13.244;2022-10-22T15:03:44;17.60;99.90
41944;DHT22;27636;52.610;13.244;2022-10-22T15:08:48;17.20;99.90
41944;DHT22;27636;52.610;13.244;2022-10-22T15:13:51;17.10;99.90
41944;DHT22;27636;52.610;13.244;2022-10-22T15:18:56;16.80;99.90
41944;DHT22;27636;52.610;13.244;2022-10-22T15:24:00;16.50;99.90
41944;DHT22;27636;52.610;13.244;2022-10-22T15:29:03;16.20;99.90
41944;DHT22;27636;52.610;13.244;2022-10-22T15:34:08;15.80;99.90
41944;DHT22;27636;52.610;13.244;2022-10-22T15:39:12;15.50;99.90
41944;DHT22;27636;52.610;13.244;2022-10-22T15:44:17;15.30;99.90
41944;DHT22;27636;52.610;13.244;2022-10-22T15:49:22;15.00;99.90
41944;DHT22;27636;52.610;13.244;2022-10-22T15:54:28;14.70;99.90
41944;DHT22;27636;52.610;13.244;2022-10-22T15:59:32;14.60;99.90
41944;DHT22;27636;52.610;13.244;2022-10-22T16:04:36;14.50;99.90
41944;DHT22;27636;52.610;13.244;2022-10-22T16:30:43;13.50;99.90
41944;DHT22;27636;52.610;13.244;2022-10-22T16:35:47;13.30;99.90
41944;DHT22;27636;52.610;13.244;2022-10-22T16:40:50;13.30;99.90
41944;DHT22;27636;52.610;13.244;2022-10-22T16:45:54;13.20;99.90
41944;DHT22;27636;52.610;13.244;2022-10-22T16:50:58;13.10;99.90
41944;DHT22;27636;52.610;13.244;2022-10-22T16:56:02;12.90;99.90
41944;DHT22;27636;52.610;13.244;2022-10-22T17:01:07;13.00;99.90
41944;DHT22;27636;52.610;13.244;2022-10-22T17:20:29;13.30;99.90
41944;DHT22;27636;52.610;13.244;2022-10-22T17:25:35;13.40;99.90
41944;DHT22;27636;52.610;13.244;2022-10-22T17:30:39;13.30;99.90
41944;DHT22;27636;52.610;13.244;2022-10-22T17:35:44;13.10;99.90
41944;DHT22;27636;52.610;13.244;2022-10-22T17:40:47;12.90;99.90
41944;DHT22;27636;52.610;13.244;2022-10-22T17:46:04;12.70;99.90
41944;DHT22;27636;52.610;13.244;2022-10-22T17:51:10;12.60;99.90
41944;DHT22;27636;52.610;13.244;2022-10-22T17:56:16;12.50;99.90
41944;DHT22;27636;52.610;13.244;2022-10-22T18:01:22;12.50;99.90
41944;DHT22;27636;52.610;13.244;2022-10-22T18:06:27;12.60;99.90
41944;DHT22;27636;52.610;13.244;2022-10-22T18:11:31;12.60;99.90
41944;DHT22;27636;52.610;13.244;2022-10-22T18:16:34;12.80;99.90
41944;DHT22;27636;52.610;13.244;2022-10-22T18:21:39;13.10;99.90
41944;DHT22;27636;52.610;13.244;2022-10-22T18:26:43;13.30;99.90
41944;DHT22;27636;52.610;13.244;2022-10-22T18:31:46;13.40;99.90
41944;DHT22;27636;52.610;13.244;2022-10-22T18:36:55;13.50;99.90
41944;DHT22;27636;52.610;13.244;2022-10-22T18:41:58;13.30;99.90
41944;DHT22;27636;52.610;13.244;2022-10-22T18:47:01;13.20;99.90
41944;DHT22;27636;52.610;13.244;2022-10-22T18:52:06;13.00;99.90
41944;DHT22;27636;52.610;13.244;2022-10-22T18:57:09;13.00;99.90
41944;DHT22;27636;52.610;13.244;2022-10-22T19:02:13;12.80;99.90
41944;DHT22;27636;52.610;13.244;2022-10-22T19:07:20;12.60;99.90
41944;DHT22;27636;52.610;13.244;2022-10-22T19:12:23;12.50;99.90
41944;DHT22;27636;52.610;13.244;2022-10-22T19:17:27;12.40;99.90
41944;DHT22;27636;52.610;13.244;2022-10-22T19:22:32;12.20;99.90
41944;DHT22;27636;52.610;13.244;2022-10-22T19:27:35;12.20;99.90
41944;DHT22;27636;52.610;13.244;2022-10-22T19:32:38;12.10;99.90
41944;DHT22;27636;52.610;13.244;2022-10-22T19:37:43;12.10;99.90
41944;DHT22;27636;52.610;13.244;2022-10-22T19:42:50;12.00;99.90
41944;DHT22;27636;52.610;13.244;2022-10-22T19:47:54;12.00;99.90
41944;DHT22;27636;52.610;13.244;2022-10-22T19:52:58;12.20;99.90
41944;DHT22;27636;52.610;13.244;2022-10-22T19:58:03;12.50;99.90
41944;DHT22;27636;52.610;13.244;2022-10-22T20:03:06;12.90;99.90
41944;DHT22;27636;52.610;13.244;2022-10-22T20:08:12;13.00;99.90
41944;DHT22;27636;52.610;13.244;2022-10-22T20:13:15;13.00;99.90
41944;DHT22;27636;52.610;13.244;2022-10-22T20:18:20;13.10;99.90
41944;DHT22;27636;52.610;13.244;2022-10-22T20:23:26;13.20;99.90
41944;DHT22;27636;52.610;13.244;2022-10-22T20:28:29;13.20;99.90
41944;DHT22;27636;52.610;13.244;2022-10-22T20:33:33;13.20;99.90
41944;DHT22;27636;52.610;13.244;2022-10-22T20:38:38;13.20;99.90
41944;DHT22;27636;52.610;13.244;2022-10-22T20:43:42;13.10;99.90
41944;DHT22;27636;52.610;13.244;2022-10-22T20:48:49;13.10;99.90
41944;DHT22;27636;52.610;13.244;2022-10-22T20:53:54;13.10;99.90
41944;DHT22;27636;52.610;13.244;2022-10-22T20:58:58;13.00;99.90
41944;DHT22;27636;52.610;13.244;2022-10-22T21:04:10;13.10;99.90
41944;DHT22;27636;52.610;13.244;2022-10-22T21:09:14;13.30;99.90
41944;DHT22;27636;52.610;13.244;2022-10-22T21:14:19;13.30;99.90
41944;DHT22;27636;52.610;13.244;2022-10-22T21:19:24;13.30;99.90
41944;DHT22;27636;52.610;13.244;2022-10-22T21:24:28;13.30;99.90
41944;DHT22;27636;52.610;13.244;2022-10-22T21:29:32;13.40;99.90
41944;DHT22;27636;52.610;13.244;2022-10-22T21:34:35;13.30;99.90
41944;DHT22;27636;52.610;13.244;2022-10-22T21:39:42;13.20;99.90
41944;DHT22;27636;52.610;13.244;2022-10-22T21:44:45;13.10;99.90
41944;DHT22;27636;52.610;13.244;2022-10-22T21:49:48;12.90;99.90
41944;DHT22;27636;52.610;13.244;2022-10-22T21:54:53;12.80;99.90
41944;DHT22;27636;52.610;13.244;2022-10-22T21:59:56;12.80;99.90
41944;DHT22;27636;52.610;13.244;2022-10-22T22:05:00;12.70;99.90
41944;DHT22;27636;52.610;13.244;2022-10-22T22:10:06;12.60;99.90
41944;DHT22;27636;52.610;13.244;2022-10-22T22:15:10;12.50;99.90
41944;DHT22;27636;52.610;13.244;2022-10-22T22:20:13;12.30;99.90
41944;DHT22;27636;52.610;13.244;2022-10-22T22:25:18;12.00;99.90
41944;DHT22;27636;52.610;13.244;2022-10-22T22:30:21;11.80;99.90
41944;DHT22;27636;52.610;13.244;2022-10-22T22:35:25;11.70;99.90
41944;DHT22;27636;52.610;13.244;2022-10-22T22:40:29;11.50;99.90
41944;DHT22;27636;52.610;13.244;2022-10-22T22:45:36;11.40;99.90
41944;DHT22;27636;52.610;13.244;2022-10-22T22:50:40;11.30;99.90
41944;DHT22;27636;52.610;13.244;2022-10-22T22:55:45;11.10;99.90
41944;DHT22;27636;52.610;13.244;2022-10-22T23:00:48;11.10;99.90
41944;DHT22;27636;52.610;13.244;2022-10-22T23:05:51;11.10;99.90
41944;DHT22;27636;52.610;13.244;2022-10-22T23:11:21;10.90;99.90
41944;DHT22;27636;52.610;13.244;2022-10-22T23:16:28;10.80;99.90
41944;DHT22;27636;52.610;13.244;2022-10-22T23:21:33;10.80;99.90
41944;DHT22;27636;52.610;13.244;2022-10-22T23:26:39;10.80;99.90
41944;DHT22;27636;52.610;13.244;2022-10-22T23:31:44;10.80;99.90
41944;DHT22;27636;52.610;13.244;2022-10-22T23:36:47;10.80;99.90
41944;DHT22;27636;52.610;13.244;2022-10-22T23:41:52;10.60;99.90
41944;DHT22;27636;52.610;13.244;2022-10-22T23:46:55;10.40;99.90
41944;DHT22;27636;52.610;13.244;2022-10-22T23:51:59;10.30;99.90
41944;DHT22;27636;52.610;13.244;2022-10-22T23:57:03;10.40;99.90
